EST,Max TemperatureF,Mean TemperatureF,Min TemperatureF,Max Dew PointF,MeanDew PointF,Min DewpointF,Max Humidity, Mean Humidity, Min Humidity, Max Sea Level PressureIn, Mean Sea Level PressureIn, Min Sea Level PressureIn, Max VisibilityMiles, Mean VisibilityMiles, Min VisibilityMiles, Max Wind SpeedMPH, Mean Wind SpeedMPH, Max Gust SpeedMPH,PrecipitationIn, CloudCover, Events, WindDirDegrees
2012-12-1,51,44,39,47,39,31,86,79,73,30.56,30.51,30.44,,,,12,9,21,0.00,,,78
2012-12-2,55,50,45,50,48,44,100,89,80,30.42,30.26,30.14,,,,13,4,21,0.00,,,201
2012-12-3,55,46,35,50,44,33,93,84,69,30.30,30.21,30.10,,,,10,6,22,0.00,,,267
2012-12-4,57,46,34,55,45,31,97,92,89,30.32,30.23,30.04,,,,9,2,22,0.00,,,178
2012-12-5,55,47,37,55,38,21,97,68,49,30.16,30.03,29.91,,,,21,11,30,0.00,,,289
2012-12-6,37,30,23,21,19,17,81,60,48,30.33,30.29,30.21,,,,17,11,28,0.00,,,332
2012-12-7,48,44,39,45,39,33,96,80,66,30.25,30.16,30.06,,,,6,1,,0.01,,,278
2012-12-8,55,50,46,56,49,45,100,95,89,30.04,29.95,29.87,,,,9,3,16,0.49,,,242
2012-12-9,50,48,45,48,42,35,97,79,59,30.26,30.18,30.03,,,,9,5,20,0.22,,,44
2012-12-10,59,54,50,58,56,48,100,97,93,30.02,29.74,29.57,,,,14,10,24,2.72,,,198
2012-12-11,55,47,39,55,35,25,97,65,50,30.19,29.91,29.59,,,,14,9,22,0.01,,,318
2012-12-12,43,40,36,26,23,21,60,52,42,30.42,30.35,30.20,,,,12,9,18,0.00,,,332
2012-12-13,44,36,28,29,25,23,85,60,45,30.46,30.40,30.32,,,,9,5,,0.00,,,19
2012-12-14,48,40,32,32,29,25,75,58,44,30.31,30.22,30.13,,,,12,5,21,0.00,,,262
2012-12-15,44,37,30,33,29,24,79,64,53,30.31,30.28,30.22,,,,10,6,,0.00,,,6
2012-12-16,46,43,41,44,37,33,93,81,68,30.28,30.13,29.96,,,,15,9,26,0.31,,,86
2012-12-17,48,46,45,48,46,43,97,94,89,29.94,29.85,29.72,,,,17,11,26,0.39,,,64
2012-12-18,53,49,45,52,47,42,100,92,83,29.64,29.50,29.47,,,,12,7,20,0.34,,,255
2012-12-19,48,45,42,37,31,29,74,59,50,30.05,29.79,29.57,,,,20,15,34,0.00,,,304
2012-12-20,45,42,39,35,30,28,68,65,58,30.21,30.13,30.01,,,,14,9,22,0.00,,,15
2012-12-21,54,48,41,52,39,28,93,75,60,29.87,29.37,29.16,,,,16,13,33,0.28,,,191
2012-12-22,39,38,37,33,26,20,79,61,48,29.73,29.49,29.32,,,,21,15,34,0.00,,,270
2012-12-23,42,40,37,29,24,20,67,55,49,29.94,29.87,29.77,,,,17,14,30,0.00,,,262
2012-12-24,39,36,33,35,25,22,89,61,50,30.10,30.04,29.94,,,,9,6,18,0.05,,,309
2012-12-25,43,38,34,41,34,23,97,84,64,30.23,30.05,29.92,,,,14,9,22,0.09,,,1
2012-12-26,43,36,30,41,28,20,93,73,61,30.28,30.14,29.65,,,,21,11,40,0.39,,,49
2012-12-27,51,43,35,50,39,26,97,87,70,29.70,29.40,29.22,,,,21,14,38,0.14,,,297
2012-12-28,37,34,30,25,23,19,72,64,57,30.06,29.96,29.73,,,,20,14,33,0.00,,,304
2012-12-29,43,38,32,36,32,25,93,84,72,30.04,29.67,29.36,,,,18,8,26,0.60,,,8
2012-12-30,35,32,28,30,18,12,85,60,44,30.09,29.86,29.47,,,,24,19,38,0.00,,,308
2012-12-31,39,32,28,24,20,12,67,58,49,30.13,30.03,29.85,,,,16,12,28,0.00,,,254